sensor_id;sensor_type;location;lat;lon;timestamp;pressure;altitude;pressure_sealevel;temperature;humidity
60918;BME280;46792;38.854;-9.384;2023-03-18T00:01:17;99589.72;;;13.10;100.00
60918;BME280;46792;38.854;-9.384;2023-03-18T00:03:18;99589.97;;;13.14;100.00
60918;BME280;46792;38.854;-9.384;2023-03-18T00:05:19;99585.16;;;13.00;100.00
60918;BME280;46792;38.854;-9.384;2023-03-18T00:07:19;99584.38;;;12.95;100.00
60918;BME280;46792;38.854;-9.384;2023-03-18T00:09:20;99585.41;;;13.04;100.00
60918;BME280;46792;38.854;-9.384;2023-03-18T00:14:18;99573.31;;;12.86;100.00
60918;BME280;46792;38.854;-9.384;2023-03-18T00:16:38;99572.22;;;12.87;100.00
60918;BME280;46792;38.854;-9.384;2023-03-18T00:18:39;99569.22;;;12.88;100.00
60918;BME280;46792;38.854;-9.384;2023-03-18T00:20:40;99568.97;;;12.90;100.00
60918;BME280;46792;38.854;-9.384;2023-03-18T00:22:43;99556.81;;;12.82;100.00
60918;BME280;46792;38.854;-9.384;2023-03-18T00:24:44;99562.25;;;12.82;100.00
60918;BME280;46792;38.854;-9.384;2023-03-18T00:26:45;99565.78;;;12.72;100.00
60918;BME280;46792;38.854;-9.384;2023-03-18T00:28:46;99556.63;;;12.63;100.00
60918;BME280;46792;38.854;-9.384;2023-03-18T00:30:47;99571.81;;;12.54;100.00
60918;BME280;46792;38.854;-9.384;2023-03-18T00:33:10;99557.16;;;12.60;100.00
60918;BME280;46792;38.854;-9.384;2023-03-18T00:37:30;99551.53;;;12.46;100.00
60918;BME280;46792;38.854;-9.384;2023-03-18T00:39:33;99548.34;;;12.34;100.00
60918;BME280;46792;38.854;-9.384;2023-03-18T00:41:35;99556.72;;;12.32;100.00
60918;BME280;46792;38.854;-9.384;2023-03-18T00:43:40;99560.78;;;12.35;100.00
60918;BME280;46792;38.854;-9.384;2023-03-18T00:46:08;99554.59;;;12.24;100.00
60918;BME280;46792;38.854;-9.384;2023-03-18T00:48:09;99554.31;;;12.25;100.00
60918;BME280;46792;38.854;-9.384;2023-03-18T00:50:10;99553.50;;;12.20;100.00
60918;BME280;46792;38.854;-9.384;2023-03-18T00:52:11;99550.50;;;12.21;100.00
60918;BME280;46792;38.854;-9.384;2023-03-18T00:54:13;99551.88;;;12.24;100.00
60918;BME280;46792;38.854;-9.384;2023-03-18T00:56:19;99555.94;;;12.26;100.00
60918;BME280;46792;38.854;-9.384;2023-03-18T00:58:20;99552.91;;;12.38;100.00
60918;BME280;46792;38.854;-9.384;2023-03-18T01:00:21;99553.75;;;12.34;100.00
60918;BME280;46792;38.854;-9.384;2023-03-18T01:02:40;99557.78;;;12.36;100.00
60918;BME280;46792;38.854;-9.384;2023-03-18T01:04:41;99555.09;;;12.41;100.00
60918;BME280;46792;38.854;-9.384;2023-03-18T01:06:41;99553.97;;;12.47;100.00
60918;BME280;46792;38.854;-9.384;2023-03-18T01:08:43;99543.69;;;12.44;100.00
60918;BME280;46792;38.854;-9.384;2023-03-18T01:10:44;99549.09;;;12.50;100.00
60918;BME280;46792;38.854;-9.384;2023-03-18T01:12:44;99533.94;;;12.43;100.00
60918;BME280;46792;38.854;-9.384;2023-03-18T01:14:48;99544.75;;;12.48;100.00
60918;BME280;46792;38.854;-9.384;2023-03-18T01:16:48;99541.22;;;12.53;100.00
60918;BME280;46792;38.854;-9.384;2023-03-18T01:19:07;99537.47;;;12.49;100.00
60918;BME280;46792;38.854;-9.384;2023-03-18T01:21:27;99538.25;;;12.50;100.00
60918;BME280;46792;38.854;-9.384;2023-03-18T01:23:31;99544.75;;;12.48;100.00
60918;BME280;46792;38.854;-9.384;2023-03-18T01:25:32;99546.94;;;12.46;100.00
60918;BME280;46792;38.854;-9.384;2023-03-18T01:27:33;99550.75;;;12.40;100.00
60918;BME280;46792;38.854;-9.384;2023-03-18T01:29:34;99554.00;;;12.37;100.00
60918;BME280;46792;38.854;-9.384;2023-03-18T01:31:36;99556.97;;;12.41;100.00
60918;BME280;46792;38.854;-9.384;2023-03-18T01:33:43;99547.22;;;12.40;100.00
60918;BME280;46792;38.854;-9.384;2023-03-18T01:35:44;99552.34;;;12.46;100.00
60918;BME280;46792;38.854;-9.384;2023-03-18T01:37:48;99552.34;;;12.46;100.00
60918;BME280;46792;38.854;-9.384;2023-03-18T01:39:49;99546.13;;;12.51;100.00
60918;BME280;46792;38.854;-9.384;2023-03-18T01:42:12;99554.44;;;12.60;100.00
60918;BME280;46792;38.854;-9.384;2023-03-18T01:44:17;99562.84;;;12.63;100.00
60918;BME280;46792;38.854;-9.384;2023-03-18T01:46:40;99559.31;;;12.68;100.00
60918;BME280;46792;38.854;-9.384;2023-03-18T01:48:43;99553.66;;;12.65;100.00
60918;BME280;46792;38.854;-9.384;2023-03-18T01:50:51;99557.16;;;12.65;100.00
60918;BME280;46792;38.854;-9.384;2023-03-18T01:52:58;99556.63;;;12.63;100.00
60918;BME280;46792;38.854;-9.384;2023-03-18T01:55:06;99547.66;;;12.68;100.00
60918;BME280;46792;38.854;-9.384;2023-03-18T01:57:08;99557.13;;;12.70;100.00
60918;BME280;46792;38.854;-9.384;2023-03-18T01:59:09;99549.63;;;12.57;100.00
60918;BME280;46792;38.854;-9.384;2023-03-18T02:06:16;99562.63;;;12.50;100.00
60918;BME280;46792;38.854;-9.384;2023-03-18T02:08:19;99553.16;;;12.47;100.00
60918;BME280;46792;38.854;-9.384;2023-03-18T02:10:23;99556.41;;;12.49;100.00
60918;BME280;46792;38.854;-9.384;2023-03-18T02:12:28;99548.53;;;12.47;100.00
60918;BME280;46792;38.854;-9.384;2023-03-18T02:14:32;99550.72;;;12.45;100.00
60918;BME280;46792;38.854;-9.384;2023-03-18T02:16:40;99555.59;;;12.48;100.00
60918;BME280;46792;38.854;-9.384;2023-03-18T02:18:49;99554.50;;;12.55;100.00
60918;BME280;46792;38.854;-9.384;2023-03-18T02:23:28;99556.13;;;12.51;100.00
60918;BME280;46792;38.854;-9.384;2023-03-18T02:28:06;99562.38;;;12.46;100.00
60918;BME280;46792;38.854;-9.384;2023-03-18T02:30:13;99571.03;;;12.48;100.00
60918;BME280;46792;38.854;-9.384;2023-03-18T02:32:19;99559.13;;;12.44;100.00
60918;BME280;46792;38.854;-9.384;2023-03-18T02:34:24;99557.22;;;12.44;100.00
60918;BME280;46792;38.854;-9.384;2023-03-18T02:36:29;99558.28;;;12.48;100.00
60918;BME280;46792;38.854;-9.384;2023-03-18T02:38:32;99554.00;;;12.42;100.00
60918;BME280;46792;38.854;-9.384;2023-03-18T02:40:39;99549.63;;;12.46;100.00
60918;BME280;46792;38.854;-9.384;2023-03-18T02:42:47;99555.59;;;12.43;100.00
60918;BME280;46792;38.854;-9.384;2023-03-18T02:44:48;99550.22;;;12.38;100.00
60918;BME280;46792;38.854;-9.384;2023-03-18T02:47:13;99552.38;;;12.36;100.00
60918;BME280;46792;38.854;-9.384;2023-03-18T02:49:18;99556.97;;;12.36;100.00
60918;BME280;46792;38.854;-9.384;2023-03-18T02:51:19;99556.16;;;12.40;100.00
60918;BME280;46792;38.854;-9.384;2023-03-18T02:53:20;99554.56;;;12.29;100.00
60918;BME280;46792;38.854;-9.384;2023-03-18T02:55:21;99549.19;;;12.24;100.00
60918;BME280;46792;38.854;-9.384;2023-03-18T02:57:21;99544.59;;;12.19;100.00
60918;BME280;46792;38.854;-9.384;2023-03-18T02:59:23;99549.97;;;12.24;100.00
60918;BME280;46792;38.854;-9.384;2023-03-18T03:01:25;99544.06;;;12.17;100.00
60918;BME280;46792;38.854;-9.384;2023-03-18T03:03:26;99539.97;;;12.20;100.00
60918;BME280;46792;38.854;-9.384;2023-03-18T03:05:28;99544.31;;;12.21;100.00
60918;BME280;46792;38.854;-9.384;2023-03-18T03:07:29;99554.31;;;12.25;100.00
60918;BME280;46792;38.854;-9.384;2023-03-18T03:09:33;99542.41;;;12.21;100.00
60918;BME280;46792;38.854;-9.384;2023-03-18T03:11:34;99559.19;;;12.23;100.00
60918;BME280;46792;38.854;-9.384;2023-03-18T03:13:43;99555.66;;;12.23;100.00
60918;BME280;46792;38.854;-9.384;2023-03-18T03:15:46;99555.66;;;12.23;100.00
60918;BME280;46792;38.854;-9.384;2023-03-18T03:17:46;99552.16;;;12.17;100.00
60918;BME280;46792;38.854;-9.384;2023-03-18T03:19:53;99555.13;;;12.15;100.00
60918;BME280;46792;38.854;-9.384;2023-03-18T03:21:54;99555.13;;;12.15;100.00
60918;BME280;46792;38.854;-9.384;2023-03-18T03:23:55;99551.88;;;12.13;100.00
60918;BME280;46792;38.854;-9.384;2023-03-18T03:25:56;99549.19;;;12.13;100.00
60918;BME280;46792;38.854;-9.384;2023-03-18T03:31:12;99551.88;;;12.13;100.00
60918;BME280;46792;38.854;-9.384;2023-03-18T03:33:13;99555.69;;;12.12;100.00
60918;BME280;46792;38.854;-9.384;2023-03-18T03:35:16;99548.38;;;12.13;100.00
60918;BME280;46792;38.854;-9.384;2023-03-18T03:37:18;99547.84;;;12.16;100.00
60918;BME280;46792;38.854;-9.384;2023-03-18T03:39:20;99541.34;;;12.12;100.00
60918;BME280;46792;38.854;-9.384;2023-03-18T03:41:21;99537.81;;;12.11;100.00
60918;BME280;46792;38.854;-9.384;2023-03-18T03:43:22;99541.63;;;12.10;100.00
60918;BME280;46792;38.854;-9.384;2023-03-18T03:45:23;99549.75;;;12.10;100.00
60918;BME280;46792;38.854;-9.384;2023-03-18T03:47:26;99539.72;;;12.11;100.00
60918;BME280;46792;38.854;-9.384;2023-03-18T03:49:27;99542.72;;;12.09;100.00
60918;BME280;46792;38.854;-9.384;2023-03-18T03:51:27;99543.81;;;12.08;100.00
60918;BME280;46792;38.854;-9.384;2023-03-18T03:56:06;99542.72;;;12.09;100.00
60918;BME280;46792;38.854;-9.384;2023-03-18T03:58:08;99535.69;;;12.08;100.00
60918;BME280;46792;38.854;-9.384;2023-03-18T04:00:13;99539.19;;;12.09;100.00
60918;BME280;46792;38.854;-9.384;2023-03-18T04:02:15;99541.91;;;12.14;100.00
60918;BME280;46792;38.854;-9.384;2023-03-18T04:04:15;99537.81;;;12.16;100.00
60918;BME280;46792;38.854;-9.384;2023-03-18T04:06:16;99533.50;;;12.15;100.00
60918;BME280;46792;38.854;-9.384;2023-03-18T04:08:25;99523.75;;;12.14;100.00
60918;BME280;46792;38.854;-9.384;2023-03-18T04:15:44;99554.59;;;12.24;100.00
60918;BME280;46792;38.854;-9.384;2023-03-18T04:17:53;99549.13;;;12.29;100.00
60918;BME280;46792;38.854;-9.384;2023-03-18T04:19:54;99549.19;;;12.24;100.00
60918;BME280;46792;38.854;-9.384;2023-03-18T04:21:59;99557.53;;;12.32;100.00
60918;BME280;46792;38.854;-9.384;2023-03-18T04:24:01;99551.06;;;12.28;100.00
60918;BME280;46792;38.854;-9.384;2023-03-18T04:26:04;99555.94;;;12.26;100.00
60918;BME280;46792;38.854;-9.384;2023-03-18T04:28:05;99562.16;;;12.27;100.00
60918;BME280;46792;38.854;-9.384;2023-03-18T04:30:07;99555.88;;;12.37;100.00
60918;BME280;46792;38.854;-9.384;2023-03-18T04:34:53;99558.03;;;12.40;100.00
60918;BME280;46792;38.854;-9.384;2023-03-18T04:36:54;99553.19;;;12.37;100.00
60918;BME280;46792;38.854;-9.384;2023-03-18T04:38:56;99546.97;;;12.41;100.00
60918;BME280;46792;38.854;-9.384;2023-03-18T04:40:57;99551.25;;;12.47;100.00
60918;BME280;46792;38.854;-9.384;2023-03-18T04:42:58;99552.34;;;12.46;100.00
60918;BME280;46792;38.854;-9.384;2023-03-18T04:45:01;99553.97;;;12.47;100.00
60918;BME280;46792;38.854;-9.384;2023-03-18T04:47:01;99559.66;;;12.51;100.00
60918;BME280;46792;38.854;-9.384;2023-03-18T04:49:03;99550.75;;;12.40;100.00
60918;BME280;46792;38.854;-9.384;2023-03-18T04:51:04;99560.22;;;12.38;100.00
60918;BME280;46792;38.854;-9.384;2023-03-18T04:53:09;99571.59;;;12.45;100.00
60918;BME280;46792;38.854;-9.384;2023-03-18T04:55:12;99570.75;;;12.44;100.00
60918;BME280;46792;38.854;-9.384;2023-03-18T04:57:19;99566.94;;;12.51;100.00
60918;BME280;46792;38.854;-9.384;2023-03-18T04:59:25;99577.28;;;12.38;100.00
60918;BME280;46792;38.854;-9.384;2023-03-18T05:01:27;99575.91;;;12.41;100.00
60918;BME280;46792;38.854;-9.384;2023-03-18T05:03:28;99567.53;;;12.42;100.00
60918;BME280;46792;38.854;-9.384;2023-03-18T05:05:29;99580.00;;;12.38;100.00
60918;BME280;46792;38.854;-9.384;2023-03-18T05:07:32;99585.66;;;12.47;100.00
60918;BME280;46792;38.854;-9.384;2023-03-18T05:09:39;99578.06;;;12.44;100.00
60918;BME280;46792;38.854;-9.384;2023-03-18T05:11:59;99585.63;;;12.57;100.00
60918;BME280;46792;38.854;-9.384;2023-03-18T05:14:05;99576.16;;;12.44;100.00
60918;BME280;46792;38.854;-9.384;2023-03-18T05:16:14;99584.81;;;12.46;100.00
60918;BME280;46792;38.854;-9.384;2023-03-18T05:18:33;99581.34;;;12.41;100.00
60918;BME280;46792;38.854;-9.384;2023-03-18T05:20:36;99589.19;;;12.42;100.00
60918;BME280;46792;38.854;-9.384;2023-03-18T05:22:38;99587.03;;;12.34;100.00
60918;BME280;46792;38.854;-9.384;2023-03-18T05:25:03;99603.00;;;12.36;100.00
60918;BME280;46792;38.854;-9.384;2023-03-18T05:27:05;99600.03;;;12.37;100.00
60918;BME280;46792;38.854;-9.384;2023-03-18T05:29:11;99606.53;;;12.36;100.00
60918;BME280;46792;38.854;-9.384;2023-03-18T05:31:32;99597.88;;;12.29;100.00
60918;BME280;46792;38.854;-9.384;2023-03-18T05:33:34;99618.47;;;12.25;100.00
60918;BME280;46792;38.854;-9.384;2023-03-18T05:35:35;99616.00;;;12.23;100.00
60918;BME280;46792;38.854;-9.384;2023-03-18T05:37:36;99610.88;;;12.16;100.00
60918;BME280;46792;38.854;-9.384;2023-03-18T05:39:41;99619.81;;;12.17;100.00
60918;BME280;46792;38.854;-9.384;2023-03-18T05:41:45;99617.13;;;12.17;100.00
60918;BME280;46792;38.854;-9.384;2023-03-18T05:43:49;99610.09;;;12.11;100.00
60918;BME280;46792;38.854;-9.384;2023-03-18T05:45:55;99613.03;;;12.14;100.00
60918;BME280;46792;38.854;-9.384;2023-03-18T05:48:07;99605.75;;;12.10;100.00
60918;BME280;46792;38.854;-9.384;2023-03-18T05:50:38;99610.88;;;12.22;100.00
60918;BME280;46792;38.854;-9.384;2023-03-18T05:52:43;99610.88;;;12.11;100.00
60918;BME280;46792;38.854;-9.384;2023-03-18T05:54:53;99610.38;;;12.09;100.00
60918;BME280;46792;38.854;-9.384;2023-03-18T05:56:59;99611.44;;;12.08;100.00
60918;BME280;46792;38.854;-9.384;2023-03-18T05:59:00;99611.44;;;12.08;100.00
60918;BME280;46792;38.854;-9.384;2023-03-18T06:01:08;99604.94;;;12.04;100.00
60918;BME280;46792;38.854;-9.384;2023-03-18T06:03:09;99620.66;;;12.07;100.00
60918;BME280;46792;38.854;-9.384;2023-03-18T06:05:09;99616.03;;;12.08;100.00
60918;BME280;46792;38.854;-9.384;2023-03-18T06:07:11;99623.31;;;12.12;100.00
60918;BME280;46792;38.854;-9.384;2023-03-18T06:09:13;99622.25;;;12.19;100.00
60918;BME280;46792;38.854;-9.384;2023-03-18T06:11:17;99620.09;;;12.26;100.00
60918;BME280;46792;38.854;-9.384;2023-03-18T06:13:18;99626.56;;;12.35;100.00
60918;BME280;46792;38.854;-9.384;2023-03-18T06:15:19;99619.50;;;12.29;100.00
60918;BME280;46792;38.854;-9.384;2023-03-18T06:17:39;99620.09;;;12.26;100.00
60918;BME280;46792;38.854;-9.384;2023-03-18T06:19:58;99618.44;;;12.35;100.00
60918;BME280;46792;38.854;-9.384;2023-03-18T06:21:59;99624.94;;;12.34;100.00
60918;BME280;46792;38.854;-9.384;2023-03-18T06:24:00;99628.72;;;12.28;100.00
60918;BME280;46792;38.854;-9.384;2023-03-18T06:26:02;99632.25;;;12.23;100.00
60918;BME280;46792;38.854;-9.384;2023-03-18T06:28:08;99641.44;;;12.22;100.00
60918;BME280;46792;38.854;-9.384;2023-03-18T06:30:10;99642.00;;;12.09;100.00
60918;BME280;46792;38.854;-9.384;2023-03-18T06:32:12;99641.72;;;12.15;100.00
60918;BME280;46792;38.854;-9.384;2023-03-18T06:34:13;99646.06;;;12.16;100.00
60918;BME280;46792;38.854;-9.384;2023-03-18T06:36:14;99643.91;;;12.19;100.00
60918;BME280;46792;38.854;-9.384;2023-03-18T06:38:19;99648.22;;;12.20;100.00
60918;BME280;46792;38.854;-9.384;2023-03-18T06:40:21;99654.47;;;12.10;100.00
60918;BME280;46792;38.854;-9.384;2023-03-18T06:42:22;99656.38;;;12.09;100.00
60918;BME280;46792;38.854;-9.384;2023-03-18T06:44:38;99654.72;;;12.03;100.00
60918;BME280;46792;38.854;-9.384;2023-03-18T06:46:53;99665.78;;;11.91;100.00
60918;BME280;46792;38.854;-9.384;2023-03-18T06:48:54;99663.38;;;11.95;100.00
60918;BME280;46792;38.854;-9.384;2023-03-18T06:51:00;99659.03;;;11.83;100.00
60918;BME280;46792;38.854;-9.384;2023-03-18T06:53:07;99661.19;;;11.76;100.00
60918;BME280;46792;38.854;-9.384;2023-03-18T06:55:08;99668.75;;;11.69;100.00
60918;BME280;46792;38.854;-9.384;2023-03-18T06:57:12;99662.22;;;11.65;100.00
60918;BME280;46792;38.854;-9.384;2023-03-18T06:59:13;99673.63;;;11.62;100.00
60918;BME280;46792;38.854;-9.384;2023-03-18T07:01:14;99676.84;;;11.64;100.00
60918;BME280;46792;38.854;-9.384;2023-03-18T07:03:34;99673.06;;;11.60;100.00
60918;BME280;46792;38.854;-9.384;2023-03-18T07:05:35;99681.97;;;11.60;100.00
60918;BME280;46792;38.854;-9.384;2023-03-18T07:07:37;99673.31;;;11.58;100.00
60918;BME280;46792;38.854;-9.384;2023-03-18T07:09:39;99681.69;;;11.56;100.00
60918;BME280;46792;38.854;-9.384;2023-03-18T07:11:40;99683.31;;;11.57;100.00
60918;BME280;46792;38.854;-9.384;2023-03-18T07:13:45;99684.13;;;11.58;100.00
60918;BME280;46792;38.854;-9.384;2023-03-18T07:16:01;99695.25;;;11.62;100.00
60918;BME280;46792;38.854;-9.384;2023-03-18T07:18:02;99695.25;;;11.62;100.00
60918;BME280;46792;38.854;-9.384;2023-03-18T07:20:04;99694.41;;;11.61;100.00
60918;BME280;46792;38.854;-9.384;2023-03-18T07:25:21;99687.13;;;11.62;100.00
60918;BME280;46792;38.854;-9.384;2023-03-18T07:27:22;99690.66;;;11.67;100.00
60918;BME280;46792;38.854;-9.384;2023-03-18T07:29:23;99694.97;;;11.68;100.00
60918;BME280;46792;38.854;-9.384;2023-03-18T07:31:24;99701.72;;;11.66;100.00
60918;BME280;46792;38.854;-9.384;2023-03-18T07:33:24;99700.09;;;11.65;100.00
60918;BME280;46792;38.854;-9.384;2023-03-18T07:35:25;99704.44;;;11.71;100.00
60918;BME280;46792;38.854;-9.384;2023-03-18T07:37:26;99707.69;;;11.73;100.00
60918;BME280;46792;38.854;-9.384;2023-03-18T07:39:28;99709.84;;;11.71;100.00
60918;BME280;46792;38.854;-9.384;2023-03-18T07:41:28;99712.56;;;11.81;100.00
60918;BME280;46792;38.854;-9.384;2023-03-18T07:43:29;99708.53;;;11.84;100.00
60918;BME280;46792;38.854;-9.384;2023-03-18T07:45:29;99720.16;;;11.84;100.00
60918;BME280;46792;38.854;-9.384;2023-03-18T07:47:30;99723.38;;;11.81;100.00
60918;BME280;46792;38.854;-9.384;2023-03-18T07:49:31;99723.94;;;11.78;100.00
60918;BME280;46792;38.854;-9.384;2023-03-18T07:51:31;99725.56;;;11.74;100.00
60918;BME280;46792;38.854;-9.384;2023-03-18T07:53:32;99727.19;;;11.75;100.00
60918;BME280;46792;38.854;-9.384;2023-03-18T07:55:33;99729.06;;;11.69;100.00
60918;BME280;46792;38.854;-9.384;2023-03-18T07:57:34;99736.91;;;11.71;100.00
60918;BME280;46792;38.854;-9.384;2023-03-18T07:59:36;99740.16;;;11.73;100.00
60918;BME280;46792;38.854;-9.384;2023-03-18T08:01:39;99730.69;;;11.76;100.00
60918;BME280;46792;38.854;-9.384;2023-03-18T08:03:40;99743.41;;;11.80;100.00
60918;BME280;46792;38.854;-9.384;2023-03-18T08:05:40;99738.84;;;11.86;100.00
60918;BME280;46792;38.854;-9.384;2023-03-18T08:07:53;99745.88;;;11.92;100.00
60918;BME280;46792;38.854;-9.384;2023-03-18T08:09:54;99750.25;;;11.98;100.00
60918;BME280;46792;38.854;-9.384;2023-03-18T08:11:55;99749.16;;;11.99;100.00
60918;BME280;46792;38.854;-9.384;2023-03-18T08:13:56;99739.16;;;12.05;100.00
60918;BME280;46792;38.854;-9.384;2023-03-18T08:15:56;99739.72;;;12.07;100.00
60918;BME280;46792;38.854;-9.384;2023-03-18T08:17:58;99747.56;;;12.14;100.00
60918;BME280;46792;38.854;-9.384;2023-03-18T08:19:58;99740.53;;;12.18;100.00
60918;BME280;46792;38.854;-9.384;2023-03-18T08:21:59;99739.44;;;12.24;100.00
60918;BME280;46792;38.854;-9.384;2023-03-18T08:24:18;99749.44;;;12.34;100.00
60918;BME280;46792;38.854;-9.384;2023-03-18T08:26:18;99750.53;;;12.43;100.00
60918;BME280;46792;38.854;-9.384;2023-03-18T08:31:16;99758.38;;;12.55;100.00
60918;BME280;46792;38.854;-9.384;2023-03-18T08:33:17;99766.78;;;12.59;100.00
60918;BME280;46792;38.854;-9.384;2023-03-18T08:35:17;99774.91;;;12.59;100.00
60918;BME280;46792;38.854;-9.384;2023-03-18T08:37:18;99787.63;;;12.63;100.00
60918;BME280;46792;38.854;-9.384;2023-03-18T08:39:19;99783.56;;;12.66;100.00
60918;BME280;46792;38.854;-9.384;2023-03-18T08:41:20;99783.81;;;12.70;100.00
60918;BME280;46792;38.854;-9.384;2023-03-18T08:43:21;99787.91;;;12.72;100.00
60918;BME280;46792;38.854;-9.384;2023-03-18T08:45:22;99783.84;;;12.75;100.00
60918;BME280;46792;38.854;-9.384;2023-03-18T08:47:22;99788.97;;;12.87;100.00
60918;BME280;46792;38.854;-9.384;2023-03-18T08:49:24;99785.69;;;13.05;100.00
60918;BME280;46792;38.854;-9.384;2023-03-18T08:51:25;99784.59;;;13.06;100.00
60918;BME280;46792;38.854;-9.384;2023-03-18T08:53:26;99780.50;;;13.19;100.00
60918;BME280;46792;38.854;-9.384;2023-03-18T08:55:28;99787.25;;;13.27;100.00
60918;BME280;46792;38.854;-9.384;2023-03-18T08:57:30;99786.16;;;13.28;100.00
60918;BME280;46792;38.854;-9.384;2023-03-18T08:59:31;99795.38;;;13.32;100.00
60918;BME280;46792;38.854;-9.384;2023-03-18T09:01:31;99798.88;;;13.38;100.00
60918;BME280;46792;38.854;-9.384;2023-03-18T09:03:32;99788.03;;;13.38;100.00
60918;BME280;46792;38.854;-9.384;2023-03-18T09:05:33;99802.94;;;13.41;100.00
60918;BME280;46792;38.854;-9.384;2023-03-18T09:07:34;99797.25;;;13.37;100.00
60918;BME280;46792;38.854;-9.384;2023-03-18T09:09:53;99793.50;;;13.28;100.00
60918;BME280;46792;38.854;-9.384;2023-03-18T09:11:57;99798.88;;;13.38;100.00
60918;BME280;46792;38.854;-9.384;2023-03-18T09:13:58;99805.94;;;13.39;100.00
60918;BME280;46792;38.854;-9.384;2023-03-18T09:15:59;99805.13;;;13.33;100.00
60918;BME280;46792;38.854;-9.384;2023-03-18T09:17:59;99814.63;;;13.46;100.00
60918;BME280;46792;38.854;-9.384;2023-03-18T09:20:00;99818.09;;;13.57;100.00
60918;BME280;46792;38.854;-9.384;2023-03-18T09:22:00;99813.47;;;13.63;100.00
60918;BME280;46792;38.854;-9.384;2023-03-18T09:24:01;99822.69;;;13.62;100.00
60918;BME280;46792;38.854;-9.384;2023-03-18T09:26:02;99822.69;;;13.62;100.00
60918;BME280;46792;38.854;-9.384;2023-03-18T09:28:03;99829.50;;;13.54;100.00
60918;BME280;46792;38.854;-9.384;2023-03-18T09:30:04;99826.81;;;13.54;100.00
60918;BME280;46792;38.854;-9.384;2023-03-18T09:32:05;99830.91;;;13.41;100.00
60918;BME280;46792;38.854;-9.384;2023-03-18T09:34:05;99826.03;;;13.43;100.00
60918;BME280;46792;38.854;-9.384;2023-03-18T09:36:07;99827.63;;;13.44;99.91
60918;BME280;46792;38.854;-9.384;2023-03-18T09:38:13;99830.31;;;13.39;99.84
60918;BME280;46792;38.854;-9.384;2023-03-18T09:40:23;99825.19;;;13.27;99.85
60918;BME280;46792;38.854;-9.384;2023-03-18T09:44:41;99843.34;;;13.32;100.00
60918;BME280;46792;38.854;-9.384;2023-03-18T09:49:13;99841.69;;;13.57;100.00
60918;BME280;46792;38.854;-9.384;2023-03-18T09:54:07;99842.72;;;13.76;94.58
60918;BME280;46792;38.854;-9.384;2023-03-18T09:56:20;99837.44;;;14.01;95.11
60918;BME280;46792;38.854;-9.384;2023-03-18T09:58:32;99844.75;;;14.05;95.83
60918;BME280;46792;38.854;-9.384;2023-03-18T10:00:39;99844.38;;;14.22;95.86
60918;BME280;46792;38.854;-9.384;2023-03-18T10:05:33;99858.47;;;14.24;91.09
60918;BME280;46792;38.854;-9.384;2023-03-18T10:07:40;99861.53;;;14.12;91.20
60918;BME280;46792;38.854;-9.384;2023-03-18T10:09:46;99868.28;;;14.20;94.13
60918;BME280;46792;38.854;-9.384;2023-03-18T10:11:50;99863.88;;;14.35;92.80
60918;BME280;46792;38.854;-9.384;2023-03-18T10:16:18;99860.31;;;14.34;89.51
60918;BME280;46792;38.854;-9.384;2023-03-18T10:18:40;99868.13;;;14.46;89.51
60918;BME280;46792;38.854;-9.384;2023-03-18T10:20:56;99876.31;;;14.41;87.18
60918;BME280;46792;38.854;-9.384;2023-03-18T10:25:39;99877.81;;;14.68;87.47
60918;BME280;46792;38.854;-9.384;2023-03-18T10:28:11;99879.88;;;14.81;85.92
60918;BME280;46792;38.854;-9.384;2023-03-18T10:30:45;99877.69;;;14.83;84.58
60918;BME280;46792;38.854;-9.384;2023-03-18T10:35:40;99867.72;;;15.03;81.87
60918;BME280;46792;38.854;-9.384;2023-03-18T10:38:01;99865.91;;;15.23;81.24
60918;BME280;46792;38.854;-9.384;2023-03-18T10:40:12;99863.00;;;15.14;78.18
60918;BME280;46792;38.854;-9.384;2023-03-18T10:42:22;99870.81;;;15.20;76.03
60918;BME280;46792;38.854;-9.384;2023-03-18T10:44:36;99871.34;;;15.23;78.15
60918;BME280;46792;38.854;-9.384;2023-03-18T10:46:39;99867.19;;;15.30;82.12
60918;BME280;46792;38.854;-9.384;2023-03-18T10:48:45;99876.63;;;15.38;82.68
60918;BME280;46792;38.854;-9.384;2023-03-18T10:56:12;99872.13;;;14.59;88.88
60918;BME280;46792;38.854;-9.384;2023-03-18T10:58:15;99869.16;;;14.55;89.82
60918;BME280;46792;38.854;-9.384;2023-03-18T11:00:25;99882.66;;;14.26;92.10
60918;BME280;46792;38.854;-9.384;2023-03-18T11:02:35;99876.81;;;14.48;92.46
60918;BME280;46792;38.854;-9.384;2023-03-18T11:04:45;99877.50;;;14.69;93.84
60918;BME280;46792;38.854;-9.384;2023-03-18T11:07:01;99875.09;;;14.63;89.47
60918;BME280;46792;38.854;-9.384;2023-03-18T11:09:06;99869.41;;;14.59;87.13
60918;BME280;46792;38.854;-9.384;2023-03-18T11:11:15;99877.56;;;14.59;84.18
60918;BME280;46792;38.854;-9.384;2023-03-18T11:13:19;99878.59;;;14.68;87.07
60918;BME280;46792;38.854;-9.384;2023-03-18T11:15:21;99877.16;;;14.81;84.67
60918;BME280;46792;38.854;-9.384;2023-03-18T11:17:30;99882.47;;;14.97;83.38
60918;BME280;46792;38.854;-9.384;2023-03-18T11:19:35;99879.69;;;15.02;82.06
60918;BME280;46792;38.854;-9.384;2023-03-18T11:21:38;99877.34;;;15.19;84.98
60918;BME280;46792;38.854;-9.384;2023-03-18T11:23:57;99872.97;;;15.24;87.88
60918;BME280;46792;38.854;-9.384;2023-03-18T11:26:25;99868.81;;;15.02;88.22
60918;BME280;46792;38.854;-9.384;2023-03-18T11:28:28;99870.81;;;14.91;90.15
60918;BME280;46792;38.854;-9.384;2023-03-18T11:30:34;99873.66;;;14.75;91.15
60918;BME280;46792;38.854;-9.384;2023-03-18T11:35:18;99879.28;;;14.84;89.49
60918;BME280;46792;38.854;-9.384;2023-03-18T11:37:19;99870.09;;;15.10;87.41
60918;BME280;46792;38.854;-9.384;2023-03-18T11:39:22;99877.16;;;15.11;85.88
60918;BME280;46792;38.854;-9.384;2023-03-18T11:44:46;99889.88;;;15.45;82.17
60918;BME280;46792;38.854;-9.384;2023-03-18T11:48:51;99889.19;;;15.34;85.34
60918;BME280;46792;38.854;-9.384;2023-03-18T12:09:26;99894.59;;;16.31;78.20